sensor_id;sensor_type;location;lat;lon;timestamp;pressure;altitude;pressure_sealevel;temperature;humidity
8160;BME280;27404;52.398;9.646;2022-09-03T00:02:43;100888.72;;;13.48;79.60
8160;BME280;27404;52.398;9.646;2022-09-03T00:07:42;100886.16;;;13.42;80.85
8160;BME280;27404;52.398;9.646;2022-09-03T00:10:15;100879.59;;;13.14;80.96
8160;BME280;27404;52.398;9.646;2022-09-03T00:12:44;100877.13;;;13.00;82.63
8160;BME280;27404;52.398;9.646;2022-09-03T00:15:17;100876.81;;;12.97;84.62
8160;BME280;27404;52.398;9.646;2022-09-03T00:17:51;100878.56;;;13.03;85.15
8160;BME280;27404;52.398;9.646;2022-09-03T00:20:31;100880.38;;;12.97;85.24
8160;BME280;27404;52.398;9.646;2022-09-03T00:22:59;100867.41;;;12.93;84.84
8160;BME280;27404;52.398;9.646;2022-09-03T00:28:06;100861.75;;;12.99;84.92
8160;BME280;27404;52.398;9.646;2022-09-03T00:30:36;100860.78;;;13.06;84.62
8160;BME280;27404;52.398;9.646;2022-09-03T00:33:12;100857.94;;;13.00;83.90
8160;BME280;27404;52.398;9.646;2022-09-03T00:38:28;100857.91;;;12.83;85.83
8160;BME280;27404;52.398;9.646;2022-09-03T00:41:23;100863.81;;;12.92;85.79
8160;BME280;27404;52.398;9.646;2022-09-03T00:46:34;100859.47;;;13.08;83.60
8160;BME280;27404;52.398;9.646;2022-09-03T00:49:20;100859.28;;;12.98;84.87
8160;BME280;27404;52.398;9.646;2022-09-03T00:54:39;100862.50;;;12.95;85.59
8160;BME280;27404;52.398;9.646;2022-09-03T00:57:26;100860.28;;;13.09;84.18
8160;BME280;27404;52.398;9.646;2022-09-03T01:02:55;100853.72;;;13.10;83.27
8160;BME280;27404;52.398;9.646;2022-09-03T01:08:31;100857.53;;;13.09;83.44
8160;BME280;27404;52.398;9.646;2022-09-03T01:11:22;100857.53;;;13.09;83.39
8160;BME280;27404;52.398;9.646;2022-09-03T01:14:14;100857.97;;;13.17;82.40
8160;BME280;27404;52.398;9.646;2022-09-03T01:30:41;100856.31;;;13.16;82.10
8160;BME280;27404;52.398;9.646;2022-09-03T01:35:52;100855.91;;;12.79;83.71
8160;BME280;27404;52.398;9.646;2022-09-03T01:38:31;100849.88;;;12.94;83.66
8160;BME280;27404;52.398;9.646;2022-09-03T01:41:28;100856.03;;;13.01;83.36
8160;BME280;27404;52.398;9.646;2022-09-03T01:49:46;100860.19;;;13.03;82.34
8160;BME280;27404;52.398;9.646;2022-09-03T01:52:45;100848.38;;;13.03;81.41
8160;BME280;27404;52.398;9.646;2022-09-03T01:58:28;100860.25;;;12.92;82.37
8160;BME280;27404;52.398;9.646;2022-09-03T02:01:00;100864.09;;;13.08;81.66
8160;BME280;27404;52.398;9.646;2022-09-03T02:03:37;100865.94;;;13.02;81.68
8160;BME280;27404;52.398;9.646;2022-09-03T02:06:03;100857.91;;;12.83;82.40
8160;BME280;27404;52.398;9.646;2022-09-03T02:08:30;100865.34;;;13.00;82.41
8160;BME280;27404;52.398;9.646;2022-09-03T02:10:57;100870.47;;;12.96;81.73
8160;BME280;27404;52.398;9.646;2022-09-03T02:13:42;100862.69;;;13.05;81.70
8160;BME280;27404;52.398;9.646;2022-09-03T02:16:13;100862.53;;;13.12;81.09
8160;BME280;27404;52.398;9.646;2022-09-03T02:18:43;100864.00;;;13.02;81.01
8160;BME280;27404;52.398;9.646;2022-09-03T02:21:12;100860.53;;;13.07;80.76
8160;BME280;27404;52.398;9.646;2022-09-03T02:23:39;100865.94;;;13.19;79.81
8160;BME280;27404;52.398;9.646;2022-09-03T02:26:07;100866.44;;;13.16;79.63
8160;BME280;27404;52.398;9.646;2022-09-03T02:28:34;100866.03;;;13.07;80.38
8160;BME280;27404;52.398;9.646;2022-09-03T02:30:59;100864.38;;;13.06;80.34
8160;BME280;27404;52.398;9.646;2022-09-03T02:33:25;100867.56;;;12.86;80.24
8160;BME280;27404;52.398;9.646;2022-09-03T02:35:52;100858.31;;;12.92;81.66
8160;BME280;27404;52.398;9.646;2022-09-03T02:38:19;100857.56;;;12.80;82.07
8160;BME280;27404;52.398;9.646;2022-09-03T02:40:45;100848.75;;;12.78;82.38
8160;BME280;27404;52.398;9.646;2022-09-03T02:43:16;100853.97;;;12.79;82.37
8160;BME280;27404;52.398;9.646;2022-09-03T02:45:47;100856.00;;;12.84;81.98
8160;BME280;27404;52.398;9.646;2022-09-03T02:48:19;100859.59;;;13.01;81.54
8160;BME280;27404;52.398;9.646;2022-09-03T02:50:47;100859.00;;;12.99;80.76
8160;BME280;27404;52.398;9.646;2022-09-03T02:53:12;100852.09;;;12.80;81.75
8160;BME280;27404;52.398;9.646;2022-09-03T02:55:38;100858.44;;;12.68;82.63
8160;BME280;27404;52.398;9.646;2022-09-03T02:58:03;100864.41;;;12.65;83.44
8160;BME280;27404;52.398;9.646;2022-09-03T03:00:31;100860.94;;;12.70;83.49
8160;BME280;27404;52.398;9.646;2022-09-03T03:02:57;100860.69;;;12.71;83.61
8160;BME280;27404;52.398;9.646;2022-09-03T03:05:34;100858.41;;;12.51;84.55
8160;BME280;27404;52.398;9.646;2022-09-03T03:08:05;100854.22;;;12.49;83.81
8160;BME280;27404;52.398;9.646;2022-09-03T03:10:33;100853.50;;;12.53;84.89
8160;BME280;27404;52.398;9.646;2022-09-03T03:12:59;100856.97;;;12.49;85.00
8160;BME280;27404;52.398;9.646;2022-09-03T03:15:25;100853.41;;;12.36;85.69
8160;BME280;27404;52.398;9.646;2022-09-03T03:17:55;100852.59;;;12.36;86.44
8160;BME280;27404;52.398;9.646;2022-09-03T03:20:21;100845.69;;;12.21;87.19
8160;BME280;27404;52.398;9.646;2022-09-03T03:22:47;100853.59;;;12.06;87.83
8160;BME280;27404;52.398;9.646;2022-09-03T03:25:12;100848.59;;;12.14;88.39
8160;BME280;27404;52.398;9.646;2022-09-03T03:27:38;100850.13;;;12.10;88.71
8160;BME280;27404;52.398;9.646;2022-09-03T03:30:05;100851.66;;;12.18;88.06
8160;BME280;27404;52.398;9.646;2022-09-03T03:32:34;100858.34;;;12.22;88.34
8160;BME280;27404;52.398;9.646;2022-09-03T03:35:00;100857.72;;;12.32;87.43
8160;BME280;27404;52.398;9.646;2022-09-03T03:37:25;100850.22;;;12.27;87.63
8160;BME280;27404;52.398;9.646;2022-09-03T03:39:51;100858.56;;;12.33;86.62
8160;BME280;27404;52.398;9.646;2022-09-03T03:42:16;100851.63;;;12.30;87.33
8160;BME280;27404;52.398;9.646;2022-09-03T03:44:42;100859.84;;;12.30;86.98
8160;BME280;27404;52.398;9.646;2022-09-03T03:47:08;100858.00;;;12.19;88.51
8160;BME280;27404;52.398;9.646;2022-09-03T03:49:34;100862.28;;;12.14;87.58
8160;BME280;27404;52.398;9.646;2022-09-03T03:51:59;100854.91;;;12.03;88.95
8160;BME280;27404;52.398;9.646;2022-09-03T03:54:27;100857.41;;;12.17;88.85
8160;BME280;27404;52.398;9.646;2022-09-03T03:56:52;100848.88;;;12.30;86.85
8160;BME280;27404;52.398;9.646;2022-09-03T03:59:18;100856.53;;;12.28;87.78
8160;BME280;27404;52.398;9.646;2022-09-03T04:01:43;100851.88;;;12.28;87.48
8160;BME280;27404;52.398;9.646;2022-09-03T04:04:08;100852.34;;;12.37;87.00
8160;BME280;27404;52.398;9.646;2022-09-03T04:06:34;100852.44;;;12.42;86.57
8160;BME280;27404;52.398;9.646;2022-09-03T04:08:59;100846.72;;;12.44;86.45
8160;BME280;27404;52.398;9.646;2022-09-03T04:11:25;100848.88;;;12.30;86.92
8160;BME280;27404;52.398;9.646;2022-09-03T04:13:51;100847.50;;;12.16;87.94
8160;BME280;27404;52.398;9.646;2022-09-03T04:16:20;100844.53;;;12.17;88.36
8160;BME280;27404;52.398;9.646;2022-09-03T04:18:46;100846.41;;;12.28;88.29
8160;BME280;27404;52.398;9.646;2022-09-03T04:21:18;100855.84;;;12.21;87.72
8160;BME280;27404;52.398;9.646;2022-09-03T04:23:46;100853.59;;;12.18;87.96
8160;BME280;27404;52.398;9.646;2022-09-03T04:26:14;100851.41;;;12.32;87.47
8160;BME280;27404;52.398;9.646;2022-09-03T04:28:41;100849.63;;;12.25;87.32
8160;BME280;27404;52.398;9.646;2022-09-03T04:31:08;100847.47;;;12.27;87.61
8160;BME280;27404;52.398;9.646;2022-09-03T04:33:34;100845.22;;;12.24;87.74
8160;BME280;27404;52.398;9.646;2022-09-03T04:36:09;100848.44;;;12.21;88.13
8160;BME280;27404;52.398;9.646;2022-09-03T04:38:37;100851.09;;;12.04;89.02
8160;BME280;27404;52.398;9.646;2022-09-03T04:41:08;100844.19;;;12.02;89.65
8160;BME280;27404;52.398;9.646;2022-09-03T04:43:34;100858.97;;;12.12;89.46
8160;BME280;27404;52.398;9.646;2022-09-03T04:46:03;100854.88;;;12.15;89.47
8160;BME280;27404;52.398;9.646;2022-09-03T04:48:30;100855.94;;;12.26;88.40
8160;BME280;27404;52.398;9.646;2022-09-03T04:53:30;100862.69;;;12.35;87.71
8160;BME280;27404;52.398;9.646;2022-09-03T04:55:55;100857.59;;;12.27;88.42
8160;BME280;27404;52.398;9.646;2022-09-03T04:58:20;100858.56;;;12.33;88.15
8160;BME280;27404;52.398;9.646;2022-09-03T05:00:46;100861.03;;;12.46;87.14
8160;BME280;27404;52.398;9.646;2022-09-03T05:03:11;100858.97;;;12.53;86.50
8160;BME280;27404;52.398;9.646;2022-09-03T05:05:37;100856.25;;;12.53;86.47
8160;BME280;27404;52.398;9.646;2022-09-03T05:08:03;100864.31;;;12.60;86.00
8160;BME280;27404;52.398;9.646;2022-09-03T05:10:29;100863.25;;;12.61;85.11
8160;BME280;27404;52.398;9.646;2022-09-03T05:13:03;100867.75;;;12.67;85.24
8160;BME280;27404;52.398;9.646;2022-09-03T05:15:30;100870.81;;;12.71;85.03
8160;BME280;27404;52.398;9.646;2022-09-03T05:17:57;100863.06;;;12.80;84.03
8160;BME280;27404;52.398;9.646;2022-09-03T05:20:24;100853.84;;;12.86;83.44
8160;BME280;27404;52.398;9.646;2022-09-03T05:22:50;100858.38;;;12.80;83.95
8160;BME280;27404;52.398;9.646;2022-09-03T05:25:15;100858.66;;;12.79;83.82
8160;BME280;27404;52.398;9.646;2022-09-03T05:27:41;100862.09;;;12.74;84.64
8160;BME280;27404;52.398;9.646;2022-09-03T05:30:07;100863.56;;;12.65;85.41
8160;BME280;27404;52.398;9.646;2022-09-03T05:32:33;100860.50;;;12.61;85.66
8160;BME280;27404;52.398;9.646;2022-09-03T05:34:59;100854.53;;;12.64;85.92
8160;BME280;27404;52.398;9.646;2022-09-03T05:37:24;100856.59;;;12.86;84.33
8160;BME280;27404;52.398;9.646;2022-09-03T05:39:49;100851.09;;;12.86;84.60
8160;BME280;27404;52.398;9.646;2022-09-03T05:42:15;100855.91;;;12.79;84.92
8160;BME280;27404;52.398;9.646;2022-09-03T05:44:40;100862.06;;;12.86;83.14
8160;BME280;27404;52.398;9.646;2022-09-03T05:47:07;100853.94;;;12.91;83.97
8160;BME280;27404;52.398;9.646;2022-09-03T05:49:32;100860.91;;;12.82;84.57
8160;BME280;27404;52.398;9.646;2022-09-03T05:51:58;100855.44;;;12.99;83.64
8160;BME280;27404;52.398;9.646;2022-09-03T05:54:24;100857.22;;;13.05;83.16
8160;BME280;27404;52.398;9.646;2022-09-03T05:56:50;100852.53;;;13.06;83.14
8160;BME280;27404;52.398;9.646;2022-09-03T05:59:15;100860.63;;;13.12;82.74
8160;BME280;27404;52.398;9.646;2022-09-03T06:01:43;100854.75;;;13.21;80.48
8160;BME280;27404;52.398;9.646;2022-09-03T06:04:14;100861.81;;;13.33;79.62
8160;BME280;27404;52.398;9.646;2022-09-03T06:06:44;100858.13;;;13.96;77.34
8160;BME280;27404;52.398;9.646;2022-09-03T06:09:12;100860.31;;;16.98;59.07
8160;BME280;27404;52.398;9.646;2022-09-03T06:11:39;100867.50;;;19.58;47.84
8160;BME280;27404;52.398;9.646;2022-09-03T06:14:08;100869.31;;;21.94;40.73
8160;BME280;27404;52.398;9.646;2022-09-03T06:16:36;100869.44;;;23.10;38.11
8160;BME280;27404;52.398;9.646;2022-09-03T06:19:03;100877.84;;;23.87;35.92
8160;BME280;27404;52.398;9.646;2022-09-03T06:21:31;100879.94;;;22.76;36.79
8160;BME280;27404;52.398;9.646;2022-09-03T06:23:57;100873.41;;;20.54;41.56
8160;BME280;27404;52.398;9.646;2022-09-03T06:26:24;100869.06;;;18.34;46.91
8160;BME280;27404;52.398;9.646;2022-09-03T06:28:50;100873.34;;;17.39;51.13
8160;BME280;27404;52.398;9.646;2022-09-03T06:31:19;100866.28;;;16.64;55.88
8160;BME280;27404;52.398;9.646;2022-09-03T06:33:45;100869.44;;;16.19;58.21
8160;BME280;27404;52.398;9.646;2022-09-03T06:36:14;100862.44;;;16.06;59.54
8160;BME280;27404;52.398;9.646;2022-09-03T06:38:41;100873.41;;;15.96;61.68
8160;BME280;27404;52.398;9.646;2022-09-03T06:41:08;100870.91;;;15.89;61.93
8160;BME280;27404;52.398;9.646;2022-09-03T06:43:39;100867.19;;;15.73;62.63
8160;BME280;27404;52.398;9.646;2022-09-03T06:46:11;100859.09;;;15.61;62.77
8160;BME280;27404;52.398;9.646;2022-09-03T06:48:38;100870.09;;;15.56;62.98
8160;BME280;27404;52.398;9.646;2022-09-03T06:51:06;100870.00;;;15.46;64.03
8160;BME280;27404;52.398;9.646;2022-09-03T06:53:34;100866.13;;;15.42;64.58
8160;BME280;27404;52.398;9.646;2022-09-03T06:56:08;100868.91;;;15.47;64.33
8160;BME280;27404;52.398;9.646;2022-09-03T06:58:37;100870.63;;;15.58;65.64
8160;BME280;27404;52.398;9.646;2022-09-03T07:01:07;100870.09;;;15.61;65.50
8160;BME280;27404;52.398;9.646;2022-09-03T07:03:37;100866.31;;;15.67;64.60
8160;BME280;27404;52.398;9.646;2022-09-03T07:06:05;100864.13;;;15.69;64.22
8160;BME280;27404;52.398;9.646;2022-09-03T07:08:31;100866.41;;;15.83;64.15
8160;BME280;27404;52.398;9.646;2022-09-03T07:11:03;100864.44;;;15.73;64.25
8160;BME280;27404;52.398;9.646;2022-09-03T07:13:38;100866.34;;;15.73;64.71
8160;BME280;27404;52.398;9.646;2022-09-03T07:16:16;100864.75;;;15.82;64.41
8160;BME280;27404;52.398;9.646;2022-09-03T07:18:43;100864.81;;;15.87;65.29
8160;BME280;27404;52.398;9.646;2022-09-03T07:21:14;100862.06;;;15.87;63.92
8160;BME280;27404;52.398;9.646;2022-09-03T07:23:40;100864.56;;;15.94;64.44
8160;BME280;27404;52.398;9.646;2022-09-03T07:26:10;100866.31;;;16.10;63.40
8160;BME280;27404;52.398;9.646;2022-09-03T07:28:38;100865.53;;;16.15;63.80
8160;BME280;27404;52.398;9.646;2022-09-03T07:31:10;100856.19;;;16.21;63.48
8160;BME280;27404;52.398;9.646;2022-09-03T07:33:37;100861.16;;;16.19;62.85
8160;BME280;27404;52.398;9.646;2022-09-03T07:36:14;100860.06;;;16.25;62.56
8160;BME280;27404;52.398;9.646;2022-09-03T07:38:41;100861.75;;;16.32;62.62
8160;BME280;27404;52.398;9.646;2022-09-03T07:41:09;100862.63;;;16.42;61.95
8160;BME280;27404;52.398;9.646;2022-09-03T07:43:42;100860.16;;;16.46;61.17
8160;BME280;27404;52.398;9.646;2022-09-03T07:46:15;100853.28;;;16.49;61.21
8160;BME280;27404;52.398;9.646;2022-09-03T07:48:46;100859.38;;;16.61;59.65
8160;BME280;27404;52.398;9.646;2022-09-03T07:51:13;100857.19;;;16.68;60.59
8160;BME280;27404;52.398;9.646;2022-09-03T07:53:39;100853.91;;;16.82;58.90
8160;BME280;27404;52.398;9.646;2022-09-03T07:56:06;100858.06;;;16.95;58.44
8160;BME280;27404;52.398;9.646;2022-09-03T07:58:34;100853.16;;;17.02;58.61
8160;BME280;27404;52.398;9.646;2022-09-03T08:01:07;100854.00;;;17.13;57.67
8160;BME280;27404;52.398;9.646;2022-09-03T08:03:34;100865.34;;;17.22;58.13
8160;BME280;27404;52.398;9.646;2022-09-03T08:06:01;100857.31;;;17.30;56.94
8160;BME280;27404;52.398;9.646;2022-09-03T08:08:28;100866.16;;;17.48;57.39
8160;BME280;27404;52.398;9.646;2022-09-03T08:10:54;100868.09;;;17.58;57.09
8160;BME280;27404;52.398;9.646;2022-09-03T08:13:19;100872.25;;;17.71;54.97
8160;BME280;27404;52.398;9.646;2022-09-03T08:15:54;100868.38;;;17.77;55.43
8160;BME280;27404;52.398;9.646;2022-09-03T08:18:21;100858.09;;;17.88;54.79
8160;BME280;27404;52.398;9.646;2022-09-03T08:20:47;100862.78;;;17.98;53.67
8160;BME280;27404;52.398;9.646;2022-09-03T08:23:12;100858.66;;;18.11;53.36
8160;BME280;27404;52.398;9.646;2022-09-03T08:25:39;100867.97;;;18.30;53.32
8160;BME280;27404;52.398;9.646;2022-09-03T08:28:04;100858.25;;;18.43;52.69
8160;BME280;27404;52.398;9.646;2022-09-03T08:30:32;100861.19;;;18.62;51.96
8160;BME280;27404;52.398;9.646;2022-09-03T08:33:01;100867.72;;;18.87;50.90
8160;BME280;27404;52.398;9.646;2022-09-03T08:35:29;100868.59;;;19.22;49.49
8160;BME280;27404;52.398;9.646;2022-09-03T08:37:56;100869.03;;;19.40;48.38
8160;BME280;27404;52.398;9.646;2022-09-03T08:40:21;100869.88;;;19.35;47.53
8160;BME280;27404;52.398;9.646;2022-09-03T08:42:57;100874.97;;;19.58;47.30
8160;BME280;27404;52.398;9.646;2022-09-03T08:45:31;100869.72;;;19.91;46.99
8160;BME280;27404;52.398;9.646;2022-09-03T08:48:04;100867.09;;;20.24;46.13
8160;BME280;27404;52.398;9.646;2022-09-03T08:50:35;100863.47;;;20.29;44.76
8160;BME280;27404;52.398;9.646;2022-09-03T08:53:11;100868.06;;;20.14;44.75
8160;BME280;27404;52.398;9.646;2022-09-03T08:58:40;100870.91;;;20.77;43.55
8160;BME280;27404;52.398;9.646;2022-09-03T09:14:37;100860.53;;;20.63;41.96
8160;BME280;27404;52.398;9.646;2022-09-03T09:17:10;100859.94;;;21.05;41.22
8160;BME280;27404;52.398;9.646;2022-09-03T09:25:10;100867.16;;;21.58;40.57
8160;BME280;27404;52.398;9.646;2022-09-03T09:27:46;100853.84;;;21.74;39.64
8160;BME280;27404;52.398;9.646;2022-09-03T09:30:17;100842.84;;;21.83;38.64
8160;BME280;27404;52.398;9.646;2022-09-03T09:32:42;100849.53;;;21.15;39.32
8160;BME280;27404;52.398;9.646;2022-09-03T09:35:09;100850.13;;;21.45;40.05
8160;BME280;27404;52.398;9.646;2022-09-03T09:37:49;100851.81;;;21.27;39.08
8160;BME280;27404;52.398;9.646;2022-09-03T09:40:28;100848.69;;;21.15;39.95
8160;BME280;27404;52.398;9.646;2022-09-03T09:43:04;100847.59;;;21.49;38.18
8160;BME280;27404;52.398;9.646;2022-09-03T09:45:30;100836.25;;;21.93;38.19
8160;BME280;27404;52.398;9.646;2022-09-03T09:47:58;100833.03;;;21.99;37.79
8160;BME280;27404;52.398;9.646;2022-09-03T09:50:24;100823.66;;;22.23;37.73
8160;BME280;27404;52.398;9.646;2022-09-03T09:53:07;100819.25;;;22.08;37.24
8160;BME280;27404;52.398;9.646;2022-09-03T09:56:08;100817.56;;;21.93;36.47
8160;BME280;27404;52.398;9.646;2022-09-03T09:58:44;100816.13;;;21.96;36.71
8160;BME280;27404;52.398;9.646;2022-09-03T10:01:20;100828.69;;;21.79;36.26
8160;BME280;27404;52.398;9.646;2022-09-03T10:03:52;100815.81;;;21.83;36.31
8160;BME280;27404;52.398;9.646;2022-09-03T10:06:28;100813.56;;;21.85;36.49
8160;BME280;27404;52.398;9.646;2022-09-03T10:09:16;100814.91;;;22.02;35.92
8160;BME280;27404;52.398;9.646;2022-09-03T10:11:46;100825.50;;;22.28;35.49
8160;BME280;27404;52.398;9.646;2022-09-03T10:14:24;100814.38;;;22.00;36.36
8160;BME280;27404;52.398;9.646;2022-09-03T10:17:06;100812.31;;;22.19;35.37
8160;BME280;27404;52.398;9.646;2022-09-03T10:20:00;100803.22;;;22.28;35.73
8160;BME280;27404;52.398;9.646;2022-09-03T10:22:53;100819.66;;;22.15;35.50
8160;BME280;27404;52.398;9.646;2022-09-03T10:25:19;100812.31;;;22.33;34.67
8160;BME280;27404;52.398;9.646;2022-09-03T10:27:45;100805.09;;;22.46;35.12
8160;BME280;27404;52.398;9.646;2022-09-03T10:30:12;100807.84;;;22.60;34.26
8160;BME280;27404;52.398;9.646;2022-09-03T10:33:00;100808.78;;;22.56;34.78
8160;BME280;27404;52.398;9.646;2022-09-03T10:35:31;100807.66;;;22.57;34.44
8160;BME280;27404;52.398;9.646;2022-09-03T10:46:09;100793.22;;;22.55;34.41
8160;BME280;27404;52.398;9.646;2022-09-03T10:49:07;100789.91;;;22.53;34.40
8160;BME280;27404;52.398;9.646;2022-09-03T10:51:43;100790.31;;;22.32;34.26
8160;BME280;27404;52.398;9.646;2022-09-03T10:54:29;100779.69;;;22.34;34.81
8160;BME280;27404;52.398;9.646;2022-09-03T11:05:34;100783.94;;;22.45;34.55
8160;BME280;27404;52.398;9.646;2022-09-03T11:08:05;100778.16;;;22.28;34.65
8160;BME280;27404;52.398;9.646;2022-09-03T11:10:39;100777.94;;;22.38;35.16
8160;BME280;27404;52.398;9.646;2022-09-03T11:15:53;100778.44;;;22.40;34.70
8160;BME280;27404;52.398;9.646;2022-09-03T11:18:24;100785.66;;;22.41;34.83
8160;BME280;27404;52.398;9.646;2022-09-03T11:20:53;100780.53;;;22.34;34.53
8160;BME280;27404;52.398;9.646;2022-09-03T11:23:31;100779.50;;;22.30;35.64
8160;BME280;27404;52.398;9.646;2022-09-03T11:26:04;100773.31;;;22.33;34.37
8160;BME280;27404;52.398;9.646;2022-09-03T11:29:18;100772.59;;;22.28;34.65
8160;BME280;27404;52.398;9.646;2022-09-03T11:32:07;100774.75;;;22.31;34.46
8160;BME280;27404;52.398;9.646;2022-09-03T11:34:46;100765.88;;;22.29;34.20
8160;BME280;27404;52.398;9.646;2022-09-03T11:37:20;100766.09;;;22.32;34.64
8160;BME280;27404;52.398;9.646;2022-09-03T11:40:12;100772.19;;;22.34;34.98
8160;BME280;27404;52.398;9.646;2022-09-03T11:42:42;100762.19;;;22.33;34.67
8160;BME280;27404;52.398;9.646;2022-09-03T11:47:41;100753.31;;;22.45;34.55
8160;BME280;27404;52.398;9.646;2022-09-03T11:50:21;100754.22;;;22.55;34.52
8160;BME280;27404;52.398;9.646;2022-09-03T11:52:51;100765.22;;;22.60;34.50
8160;BME280;27404;52.398;9.646;2022-09-03T11:55:32;100755.34;;;22.54;34.39
8160;BME280;27404;52.398;9.646;2022-09-03T11:58:17;100752.50;;;22.45;34.30
8160;BME280;27404;52.398;9.646;2022-09-03T12:00:46;100766.28;;;22.36;34.63
8160;BME280;27404;52.398;9.646;2022-09-03T12:03:14;100751.03;;;22.33;34.13
8160;BME280;27404;52.398;9.646;2022-09-03T12:06:24;100739.28;;;22.37;34.43
8160;BME280;27404;52.398;9.646;2022-09-03T12:15:13;100743.66;;;22.88;34.17
8160;BME280;27404;52.398;9.646;2022-09-03T12:17:58;100744.91;;;23.05;33.82
8160;BME280;27404;52.398;9.646;2022-09-03T12:21:06;100747.56;;;23.10;33.16
8160;BME280;27404;52.398;9.646;2022-09-03T12:23:47;100740.78;;;23.02;33.78
8160;BME280;27404;52.398;9.646;2022-09-03T12:26:16;100744.84;;;22.96;33.08
8160;BME280;27404;52.398;9.646;2022-09-03T12:28:46;100751.84;;;22.85;33.66
8160;BME280;27404;52.398;9.646;2022-09-03T12:31:18;100746.19;;;22.76;33.37
8160;BME280;27404;52.398;9.646;2022-09-03T12:36:19;100742.19;;;22.91;33.57
8160;BME280;27404;52.398;9.646;2022-09-03T12:38:46;100740.78;;;23.02;33.63
8160;BME280;27404;52.398;9.646;2022-09-03T12:41:28;100739.72;;;23.12;33.23
8160;BME280;27404;52.398;9.646;2022-09-03T12:43:58;100739.97;;;23.02;33.15
8160;BME280;27404;52.398;9.646;2022-09-03T12:46:27;100734.19;;;22.98;33.14
8160;BME280;27404;52.398;9.646;2022-09-03T12:48:55;100729.00;;;23.05;33.28
8160;BME280;27404;52.398;9.646;2022-09-03T12:51:20;100729.09;;;22.91;32.83
8160;BME280;27404;52.398;9.646;2022-09-03T12:53:48;100721.78;;;23.04;33.29
8160;BME280;27404;52.398;9.646;2022-09-03T12:56:15;100717.69;;;23.02;32.86
8160;BME280;27404;52.398;9.646;2022-09-03T12:58:51;100719.31;;;23.03;32.75
8160;BME280;27404;52.398;9.646;2022-09-03T13:01:26;100715.31;;;23.18;32.84
8160;BME280;27404;52.398;9.646;2022-09-03T13:04:05;100707.19;;;23.07;31.95
8160;BME280;27404;52.398;9.646;2022-09-03T13:06:49;100721.19;;;22.85;32.37
8160;BME280;27404;52.398;9.646;2022-09-03T13:09:22;100716.38;;;22.76;32.89
8160;BME280;27404;52.398;9.646;2022-09-03T13:11:50;100715.53;;;22.76;33.15
8160;BME280;27404;52.398;9.646;2022-09-03T13:14:20;100716.59;;;22.66;33.08
8160;BME280;27404;52.398;9.646;2022-09-03T13:19:50;100713.56;;;22.76;32.53
8160;BME280;27404;52.398;9.646;2022-09-03T13:25:37;100706.44;;;22.93;33.02
8160;BME280;27404;52.398;9.646;2022-09-03T13:28:31;100709.31;;;22.79;32.70
8160;BME280;27404;52.398;9.646;2022-09-03T13:33:51;100712.03;;;22.93;32.79
8160;BME280;27404;52.398;9.646;2022-09-03T13:36:21;100705.31;;;22.94;32.09
8160;BME280;27404;52.398;9.646;2022-09-03T13:38:59;100703.75;;;22.79;31.98
8160;BME280;27404;52.398;9.646;2022-09-03T13:41:40;100711.53;;;22.91;32.91
8160;BME280;27404;52.398;9.646;2022-09-03T13:44:17;100706.66;;;22.97;32.66
8160;BME280;27404;52.398;9.646;2022-09-03T13:46:49;100710.75;;;22.99;32.58
8160;BME280;27404;52.398;9.646;2022-09-03T13:49:50;100714.38;;;23.00;32.27
8160;BME280;27404;52.398;9.646;2022-09-03T13:52:53;100708.81;;;23.00;32.18
8160;BME280;27404;52.398;9.646;2022-09-03T13:55:30;100715.31;;;22.95;32.06
8160;BME280;27404;52.398;9.646;2022-09-03T14:00:30;100709.09;;;22.98;32.71
8160;BME280;27404;52.398;9.646;2022-09-03T14:09:00;100706.88;;;22.77;32.59
8160;BME280;27404;52.398;9.646;2022-09-03T14:17:29;100699.06;;;22.88;31.50
8160;BME280;27404;52.398;9.646;2022-09-03T14:20:01;100697.22;;;22.84;32.76
8160;BME280;27404;52.398;9.646;2022-09-03T14:22:47;100689.41;;;22.95;32.58
8160;BME280;27404;52.398;9.646;2022-09-03T14:25:17;100701.59;;;22.99;32.01
8160;BME280;27404;52.398;9.646;2022-09-03T14:27:44;100701.59;;;22.99;32.02
8160;BME280;27404;52.398;9.646;2022-09-03T14:30:17;100704.88;;;23.01;31.92
8160;BME280;27404;52.398;9.646;2022-09-03T14:36:01;100708.56;;;22.65;32.60
8160;BME280;27404;52.398;9.646;2022-09-03T15:02:38;100710.53;;;22.27;32.80
8160;BME280;27404;52.398;9.646;2022-09-03T15:10:44;100688.44;;;22.45;32.33
8160;BME280;27404;52.398;9.646;2022-09-03T15:13:16;100687.69;;;22.39;32.51
8160;BME280;27404;52.398;9.646;2022-09-03T15:19:04;100696.97;;;22.48;32.48
8160;BME280;27404;52.398;9.646;2022-09-03T15:22:07;100703.56;;;22.53;32.46
8160;BME280;27404;52.398;9.646;2022-09-03T15:24:49;100701.97;;;22.60;32.34
8160;BME280;27404;52.398;9.646;2022-09-03T15:30:15;100699.38;;;22.64;32.02
8160;BME280;27404;52.398;9.646;2022-09-03T15:38:36;100697.75;;;22.63;31.63
8160;BME280;27404;52.398;9.646;2022-09-03T15:41:09;100701.22;;;22.69;32.23
8160;BME280;27404;52.398;9.646;2022-09-03T15:43:37;100696.91;;;22.62;31.63
8160;BME280;27404;52.398;9.646;2022-09-03T15:46:32;100704.94;;;22.64;32.00
8160;BME280;27404;52.398;9.646;2022-09-03T15:49:01;100699.81;;;22.57;31.99
8160;BME280;27404;52.398;9.646;2022-09-03T15:52:02;100700.53;;;22.63;31.88
8160;BME280;27404;52.398;9.646;2022-09-03T15:57:11;100696.84;;;22.54;31.94
8160;BME280;27404;52.398;9.646;2022-09-03T16:03:12;100699.50;;;22.59;31.23
8160;BME280;27404;52.398;9.646;2022-09-03T16:10:21;100704.25;;;22.81;32.13
8160;BME280;27404;52.398;9.646;2022-09-03T16:13:37;100695.25;;;22.84;31.53
8160;BME280;27404;52.398;9.646;2022-09-03T16:16:14;100688.03;;;22.83;31.39
8160;BME280;27404;52.398;9.646;2022-09-03T16:19:01;100696.00;;;22.76;31.63
8160;BME280;27404;52.398;9.646;2022-09-03T16:21:53;100699.59;;;22.99;31.59
8160;BME280;27404;52.398;9.646;2022-09-03T16:24:47;100705.19;;;22.99;30.93
8160;BME280;27404;52.398;9.646;2022-09-03T16:27:25;100694.13;;;22.85;31.45